Knossos Palace — SYQO — position and weather

sailwx.info

Track history (hours):
 
Tides and Currents Weather Stations Pressure Air Temp Water Temp Dewpoint Dewpoint Depression Visibility Wind Speed Wind Dir Waves Ship Positions

Knossos Palace

Last reported at 2015-Jan-30 03:14 UTC. Time now 2015-Jan-30 18:31 UTC.
Position N 35°40' E 024°56'.

Length 214 m; beam 26.4 m; draft 7.3 m.

Type: Ship. MMSI: 237641000.

Date/timePositionNaut miles runAvg speedWind from/ knotsBaromVisibWave heightAir tempDewpointWater temp
2015-Jan-30 03:14N 35°40' E 024°56'1319.4
2015-Jan-30 02:33N 35°52' E 024°48'11518.9
2015-Jan-29 20:29N 37°35' E 023°45'1819.4
2015-Jan-29 19:33N 37°52' E 023°37'5 5.2
2015-Jan-29 18:33N 37°57' E 023°38'0 0.0
2015-Jan-29 17:32N 37°57' E 023°38'0 0.0
2015-Jan-29 16:32N 37°57' E 023°38'0 0.0
2015-Jan-29 15:32N 37°57' E 023°38'0 0.0
2015-Jan-29 14:32N 37°57' E 023°38'0 0.0
2015-Jan-29 13:32N 37°57' E 023°38'0 0.0
2015-Jan-29 12:32N 37°57' E 023°38'0 0.0
2015-Jan-29 11:32N 37°57' E 023°38'0 0.0
2015-Jan-29 10:32N 37°57' E 023°38'0 0.0
2015-Jan-29 09:32N 37°57' E 023°38'0 0.0
2015-Jan-29 08:32N 37°57' E 023°38'0 0.0
2015-Jan-29 07:32N 37°57' E 023°38'0 0.0
2015-Jan-29 06:32N 37°57' E 023°38'0 0.0
2015-Jan-29 05:32N 37°57' E 023°38'0 0.0
2015-Jan-29 04:33N 37°57' E 023°38'1313.2
2015-Jan-29 03:33N 37°44' E 023°44'10920.2
2015-Jan-28 22:09N 36°04' E 024°39'1320.2
2015-Jan-28 21:31N 35°53' E 024°47'1920.1
2015-Jan-28 20:33N 35°36' E 024°59'2 0.1
2015-Jan-28 03:23N 35°38' E 024°58'1619.5
2015-Jan-28 02:33N 35°52' E 024°48'11418.6
2015-Jan-27 20:26N 37°34' E 023°45'1719.5
2015-Jan-27 19:33N 37°49' E 023°37'7 7.3
2015-Jan-27 18:33N 37°57' E 023°38'0 0.0
2015-Jan-27 17:33N 37°57' E 023°38'0 0.0
2015-Jan-27 16:32N 37°57' E 023°38'0 0.0
2015-Jan-27 15:32N 37°57' E 023°38'0 0.0
2015-Jan-27 14:32N 37°57' E 023°38'0 0.0
2015-Jan-27 13:32N 37°57' E 023°38'0 0.0
2015-Jan-27 12:32N 37°57' E 023°38'0 0.0
2015-Jan-27 11:32N 37°57' E 023°38'0 0.0
2015-Jan-27 10:32N 37°57' E 023°38'0 0.0
2015-Jan-27 09:32N 37°57' E 023°38'0 0.0
2015-Jan-27 08:32N 37°57' E 023°38'0 0.0
2015-Jan-27 07:32N 37°57' E 023°38'0 0.0
2015-Jan-27 06:32N 37°57' E 023°38'0 0.0
2015-Jan-27 05:33N 37°57' E 023°38'0 0.0
2015-Jan-27 04:33N 37°57' E 023°38'1312.8
2015-Jan-27 03:33N 37°45' E 023°44'10220.2
2015-Jan-26 22:30N 36°11' E 024°34'1920.2
2015-Jan-26 21:33N 35°54' E 024°46'2020.2
2015-Jan-26 20:33N 35°37' E 024°59'1 0.0
2015-Jan-26 03:30N 35°37' E 024°58'1818.5
2015-Jan-26 02:32N 35°52' E 024°47'11418.5
2015-Jan-25 20:24N 37°34' E 023°44'1619.0
2015-Jan-25 19:33N 37°49' E 023°36'7 7.4
2015-Jan-25 18:34N 37°57' E 023°38'0 0.0
2015-Jan-25 17:31N 37°57' E 023°38'0 0.0
2015-Jan-25 16:28N 37°57' E 023°38'0 0.0
2015-Jan-25 15:31N 37°57' E 023°38'0 0.0
2015-Jan-25 14:28N 37°57' E 023°38'0 0.0
2015-Jan-25 13:32N 37°57' E 023°38'0 0.0
2015-Jan-25 12:28N 37°57' E 023°38'0 0.0
2015-Jan-25 11:31N 37°57' E 023°38'0 0.0
2015-Jan-25 10:31N 37°57' E 023°38'0 0.0
2015-Jan-25 09:31N 37°57' E 023°38'0 0.0
2015-Jan-25 08:31N 37°57' E 023°38'0 0.0
2015-Jan-25 07:31N 37°57' E 023°38'0 0.0
2015-Jan-25 06:28N 37°57' E 023°38'0 0.0
2015-Jan-25 05:28N 37°57' E 023°38'0 0.2
2015-Jan-25 04:33N 37°56' E 023°38'1716.8
2015-Jan-25 03:34N 37°41' E 023°45'10219.9
2015-Jan-24 22:25N 36°07' E 024°37'1719.4
2015-Jan-24 21:33N 35°53' E 024°47'2019.5
2015-Jan-24 20:33N 35°36' E 024°60'1 0.0
2015-Jan-24 03:33N 35°36' E 024°60'1919.4
2015-Jan-24 02:33N 35°52' E 024°47'11518.5
2015-Jan-23 20:20N 37°36' E 023°45'1519.5
2015-Jan-23 19:33N 37°49' E 023°37'7 7.2
2015-Jan-23 18:34N 37°57' E 023°38'0 0.0
2015-Jan-23 17:32N 37°57' E 023°38'0 0.0
2015-Jan-23 16:32N 37°57' E 023°38'0 0.0
2015-Jan-23 15:32N 37°57' E 023°38'0 0.0
2015-Jan-23 14:32N 37°57' E 023°38'0 0.0
2015-Jan-23 13:32N 37°57' E 023°38'0 0.0
2015-Jan-23 12:32N 37°57' E 023°38'0 0.0
2015-Jan-23 11:32N 37°57' E 023°38'0 0.0
2015-Jan-23 10:32N 37°57' E 023°38'0 0.0
2015-Jan-23 09:32N 37°57' E 023°38'0 0.0
2015-Jan-23 08:33N 37°57' E 023°38'0 0.0
2015-Jan-23 07:32N 37°57' E 023°38'0 0.0
2015-Jan-23 06:31N 37°57' E 023°38'0 0.0
2015-Jan-23 05:31N 37°57' E 023°38'0 0.0
2015-Jan-23 04:34N 37°57' E 023°38'1514.5
2015-Jan-23 03:33N 37°43' E 023°45'6120.2
2015-Jan-23 00:32N 36°46' E 024°11'2019.9
2015-Jan-22 23:32N 36°28' E 024°22'2020.0
2015-Jan-22 22:33N 36°11' E 024°34'2019.9
2015-Jan-22 21:33N 35°54' E 024°47'2019.9
2015-Jan-22 20:33N 35°37' E 024°59'1817.6
2015-Jan-22 19:33N 35°21' E 025°09'0 0.1
2015-Jan-22 18:32N 35°21' E 025°09'0 0.0
2015-Jan-22 17:32N 35°21' E 025°09'0 0.0
2015-Jan-22 16:32N 35°21' E 025°09'0 0.0
2015-Jan-22 15:32N 35°21' E 025°09'0 0.0
2015-Jan-22 14:32N 35°21' E 025°09'0 0.0
2015-Jan-22 13:32N 35°21' E 025°09'0 0.0
2015-Jan-22 12:26N 35°21' E 025°09'0 0.0
2015-Jan-22 11:29N 35°21' E 025°09'0 0.0
2015-Jan-22 10:32N 35°21' E 025°09'0 0.0
2015-Jan-22 09:32N 35°21' E 025°09'0 0.0
2015-Jan-22 08:29N 35°21' E 025°09'0 0.0
2015-Jan-22 07:32N 35°21' E 025°09'0 0.0
2015-Jan-22 06:32N 35°21' E 025°09'0 0.0
2015-Jan-22 05:32N 35°21' E 025°09'1 0.6
2015-Jan-22 04:33N 35°21' E 025°09'1818.0
2015-Jan-22 03:33N 35°37' E 024°59'2019.3
2015-Jan-22 02:32N 35°54' E 024°46'1919.5
2015-Jan-22 01:33N 36°10' E 024°34'9619.1
2015-Jan-21 20:33N 37°37' E 023°44'1918.8
2015-Jan-21 19:34N 37°55' E 023°37'2 2.3
2015-Jan-21 18:33N 37°57' E 023°38'0 0.0
2015-Jan-21 17:33N 37°57' E 023°38'0 0.0
2015-Jan-21 16:33N 37°57' E 023°38'0 0.0
2015-Jan-21 15:33N 37°57' E 023°38'0 0.0
2015-Jan-21 14:33N 37°57' E 023°38'0 0.0
2015-Jan-21 13:33N 37°57' E 023°38'0 0.0
2015-Jan-21 12:33N 37°57' E 023°38'0 0.0
2015-Jan-21 11:33N 37°57' E 023°38'0 0.0
2015-Jan-21 10:33N 37°57' E 023°38'0 0.0
2015-Jan-21 09:33N 37°57' E 023°38'0 0.0
2015-Jan-21 08:33N 37°57' E 023°38'0 0.0
2015-Jan-21 07:30N 37°57' E 023°38'0 0.0
2015-Jan-21 06:33N 37°57' E 023°38'0 0.0
2015-Jan-21 05:33N 37°57' E 023°38'0 0.1
2015-Jan-21 04:34N 37°57' E 023°38'1615.5
2015-Jan-21 03:33N 37°42' E 023°46'8919.8
2015-Jan-20 23:04N 36°20' E 024°28'1120.0
2015-Jan-20 22:33N 36°11' E 024°34'2019.8
2015-Jan-20 21:33N 35°54' E 024°46'2019.9
2015-Jan-20 20:32N 35°37' E 024°59'2 0.1
2015-Jan-20 03:28N 35°38' E 024°58'  
Track history (hours):
 
Tides and Currents Weather Stations Pressure Air Temp Water Temp Dewpoint Dewpoint Depression Visibility Wind Speed Wind Dir Waves Ship Positions

Knossos Palace

Last reported at 2015-Jan-30 03:14 UTC. Time now 2015-Jan-30 18:31 UTC.
Position N 35°40' E 024°56'.

Length 214 m; beam 26.4 m; draft 7.3 m.

Type: Ship. MMSI: 237641000.

Date/timePositionNaut miles runAvg speedWind from/ knotsBaromVisibWave heightAir tempDewpointWater temp
2015-Jan-30 03:14N 35°40' E 024°56'1319.4
2015-Jan-30 02:33N 35°52' E 024°48'11518.9
2015-Jan-29 20:29N 37°35' E 023°45'1819.4
2015-Jan-29 19:33N 37°52' E 023°37'5 5.2
2015-Jan-29 18:33N 37°57' E 023°38'0 0.0
2015-Jan-29 17:32N 37°57' E 023°38'0 0.0
2015-Jan-29 16:32N 37°57' E 023°38'0 0.0
2015-Jan-29 15:32N 37°57' E 023°38'0 0.0
2015-Jan-29 14:32N 37°57' E 023°38'0 0.0
2015-Jan-29 13:32N 37°57' E 023°38'0 0.0
2015-Jan-29 12:32N 37°57' E 023°38'0 0.0
2015-Jan-29 11:32N 37°57' E 023°38'0 0.0
2015-Jan-29 10:32N 37°57' E 023°38'0 0.0
2015-Jan-29 09:32N 37°57' E 023°38'0 0.0
2015-Jan-29 08:32N 37°57' E 023°38'0 0.0
2015-Jan-29 07:32N 37°57' E 023°38'0 0.0
2015-Jan-29 06:32N 37°57' E 023°38'0 0.0
2015-Jan-29 05:32N 37°57' E 023°38'0 0.0
2015-Jan-29 04:33N 37°57' E 023°38'1313.2
2015-Jan-29 03:33N 37°44' E 023°44'10920.2
2015-Jan-28 22:09N 36°04' E 024°39'1320.2
2015-Jan-28 21:31N 35°53' E 024°47'1920.1
2015-Jan-28 20:33N 35°36' E 024°59'2 0.1
2015-Jan-28 03:23N 35°38' E 024°58'1619.5
2015-Jan-28 02:33N 35°52' E 024°48'11418.6
2015-Jan-27 20:26N 37°34' E 023°45'1719.5
2015-Jan-27 19:33N 37°49' E 023°37'7 7.3
2015-Jan-27 18:33N 37°57' E 023°38'0 0.0
2015-Jan-27 17:33N 37°57' E 023°38'0 0.0
2015-Jan-27 16:32N 37°57' E 023°38'0 0.0
2015-Jan-27 15:32N 37°57' E 023°38'0 0.0
2015-Jan-27 14:32N 37°57' E 023°38'0 0.0
2015-Jan-27 13:32N 37°57' E 023°38'0 0.0
2015-Jan-27 12:32N 37°57' E 023°38'0 0.0
2015-Jan-27 11:32N 37°57' E 023°38'0 0.0
2015-Jan-27 10:32N 37°57' E 023°38'0 0.0
2015-Jan-27 09:32N 37°57' E 023°38'0 0.0
2015-Jan-27 08:32N 37°57' E 023°38'0 0.0
2015-Jan-27 07:32N 37°57' E 023°38'0 0.0
2015-Jan-27 06:32N 37°57' E 023°38'0 0.0
2015-Jan-27 05:33N 37°57' E 023°38'0 0.0
2015-Jan-27 04:33N 37°57' E 023°38'1312.8
2015-Jan-27 03:33N 37°45' E 023°44'10220.2
2015-Jan-26 22:30N 36°11' E 024°34'1920.2
2015-Jan-26 21:33N 35°54' E 024°46'2020.2
2015-Jan-26 20:33N 35°37' E 024°59'1 0.0
2015-Jan-26 03:30N 35°37' E 024°58'1818.5
2015-Jan-26 02:32N 35°52' E 024°47'11418.5
2015-Jan-25 20:24N 37°34' E 023°44'1619.0
2015-Jan-25 19:33N 37°49' E 023°36'7 7.4
2015-Jan-25 18:34N 37°57' E 023°38'0 0.0
2015-Jan-25 17:31N 37°57' E 023°38'0 0.0
2015-Jan-25 16:28N 37°57' E 023°38'0 0.0
2015-Jan-25 15:31N 37°57' E 023°38'0 0.0
2015-Jan-25 14:28N 37°57' E 023°38'0 0.0
2015-Jan-25 13:32N 37°57' E 023°38'0 0.0
2015-Jan-25 12:28N 37°57' E 023°38'0 0.0
2015-Jan-25 11:31N 37°57' E 023°38'0 0.0
2015-Jan-25 10:31N 37°57' E 023°38'0 0.0
2015-Jan-25 09:31N 37°57' E 023°38'0 0.0
2015-Jan-25 08:31N 37°57' E 023°38'0 0.0
2015-Jan-25 07:31N 37°57' E 023°38'0 0.0
2015-Jan-25 06:28N 37°57' E 023°38'0 0.0
2015-Jan-25 05:28N 37°57' E 023°38'0 0.2
2015-Jan-25 04:33N 37°56' E 023°38'1716.8
2015-Jan-25 03:34N 37°41' E 023°45'10219.9
2015-Jan-24 22:25N 36°07' E 024°37'1719.4
2015-Jan-24 21:33N 35°53' E 024°47'2019.5
2015-Jan-24 20:33N 35°36' E 024°60'1 0.0
2015-Jan-24 03:33N 35°36' E 024°60'1919.4
2015-Jan-24 02:33N 35°52' E 024°47'11518.5
2015-Jan-23 20:20N 37°36' E 023°45'1519.5
2015-Jan-23 19:33N 37°49' E 023°37'7 7.2
2015-Jan-23 18:34N 37°57' E 023°38'0 0.0
2015-Jan-23 17:32N 37°57' E 023°38'0 0.0
2015-Jan-23 16:32N 37°57' E 023°38'0 0.0
2015-Jan-23 15:32N 37°57' E 023°38'0 0.0
2015-Jan-23 14:32N 37°57' E 023°38'0 0.0
2015-Jan-23 13:32N 37°57' E 023°38'0 0.0
2015-Jan-23 12:32N 37°57' E 023°38'0 0.0
2015-Jan-23 11:32N 37°57' E 023°38'0 0.0
2015-Jan-23 10:32N 37°57' E 023°38'0 0.0
2015-Jan-23 09:32N 37°57' E 023°38'0 0.0
2015-Jan-23 08:33N 37°57' E 023°38'0 0.0
2015-Jan-23 07:32N 37°57' E 023°38'0 0.0
2015-Jan-23 06:31N 37°57' E 023°38'0 0.0
2015-Jan-23 05:31N 37°57' E 023°38'0 0.0
2015-Jan-23 04:34N 37°57' E 023°38'1514.5
2015-Jan-23 03:33N 37°43' E 023°45'6120.2
2015-Jan-23 00:32N 36°46' E 024°11'2019.9
2015-Jan-22 23:32N 36°28' E 024°22'2020.0
2015-Jan-22 22:33N 36°11' E 024°34'2019.9
2015-Jan-22 21:33N 35°54' E 024°47'2019.9
2015-Jan-22 20:33N 35°37' E 024°59'1817.6
2015-Jan-22 19:33N 35°21' E 025°09'0 0.1
2015-Jan-22 18:32N 35°21' E 025°09'0 0.0
2015-Jan-22 17:32N 35°21' E 025°09'0 0.0
2015-Jan-22 16:32N 35°21' E 025°09'0 0.0
2015-Jan-22 15:32N 35°21' E 025°09'0 0.0
2015-Jan-22 14:32N 35°21' E 025°09'0 0.0
2015-Jan-22 13:32N 35°21' E 025°09'0 0.0
2015-Jan-22 12:26N 35°21' E 025°09'0 0.0
2015-Jan-22 11:29N 35°21' E 025°09'0 0.0
2015-Jan-22 10:32N 35°21' E 025°09'0 0.0
2015-Jan-22 09:32N 35°21' E 025°09'0 0.0
2015-Jan-22 08:29N 35°21' E 025°09'0 0.0
2015-Jan-22 07:32N 35°21' E 025°09'0 0.0
2015-Jan-22 06:32N 35°21' E 025°09'0 0.0
2015-Jan-22 05:32N 35°21' E 025°09'1 0.6
2015-Jan-22 04:33N 35°21' E 025°09'1818.0
2015-Jan-22 03:33N 35°37' E 024°59'2019.3
2015-Jan-22 02:32N 35°54' E 024°46'1919.5
2015-Jan-22 01:33N 36°10' E 024°34'9619.1
2015-Jan-21 20:33N 37°37' E 023°44'1918.8
2015-Jan-21 19:34N 37°55' E 023°37'2 2.3
2015-Jan-21 18:33N 37°57' E 023°38'0 0.0
2015-Jan-21 17:33N 37°57' E 023°38'0 0.0
2015-Jan-21 16:33N 37°57' E 023°38'0 0.0
2015-Jan-21 15:33N 37°57' E 023°38'0 0.0
2015-Jan-21 14:33N 37°57' E 023°38'0 0.0
2015-Jan-21 13:33N 37°57' E 023°38'0 0.0
2015-Jan-21 12:33N 37°57' E 023°38'0 0.0
2015-Jan-21 11:33N 37°57' E 023°38'0 0.0
2015-Jan-21 10:33N 37°57' E 023°38'0 0.0
2015-Jan-21 09:33N 37°57' E 023°38'0 0.0
2015-Jan-21 08:33N 37°57' E 023°38'0 0.0
2015-Jan-21 07:30N 37°57' E 023°38'0 0.0
2015-Jan-21 06:33N 37°57' E 023°38'0 0.0
2015-Jan-21 05:33N 37°57' E 023°38'0 0.1
2015-Jan-21 04:34N 37°57' E 023°38'1615.5
2015-Jan-21 03:33N 37°42' E 023°46'8919.8
2015-Jan-20 23:04N 36°20' E 024°28'1120.0
2015-Jan-20 22:33N 36°11' E 024°34'2019.8
2015-Jan-20 21:33N 35°54' E 024°46'2019.9
2015-Jan-20 20:32N 35°37' E 024°59'2 0.1
2015-Jan-20 03:28N 35°38' E 024°58'  

Dump ship's entire track history